Hayase Maru — JD2583 — position and weather

sailwx.info

Track history (hours):
 
Tides and Currents Weather Stations Pressure Air Temp Water Temp Dewpoint Dewpoint Depression Visibility Wind Speed Wind Dir Waves Ship Positions

Hayase Maru

Last reported at 2018-Feb-16 03:40 UTC. Time now 2018-Feb-22 09:16 UTC.
Position N 34°58' E 140°07'.

Length 73 m; draft 4 m.

Type: Ship. MMSI: 431000395.

Date/timePositionNaut miles runAvg speedWind from/ knotsBaromVisibWave heightAir tempDewpointWater temp
2018-Feb-16 03:40N 34°58' E 140°07'19 9.8
2018-Feb-16 01:42N 34°58' E 139°43'313.0
2018-Feb-16 01:29N 35°01' E 139°44'612.9
2018-Feb-16 01:00N 35°07' E 139°45'612.7
2018-Feb-16 00:30N 35°13' E 139°46'612.4
2018-Feb-16 00:00N 35°19' E 139°43'612.1
2018-Feb-15 23:30N 35°25' E 139°44'713.0
2018-Feb-15 22:58N 35°29' E 139°50'713.0
2018-Feb-15 22:28N 35°34' E 139°55'5 0.3
2018-Feb-15 06:44N 35°38' E 139°58'2 0.1
2018-Feb-14 06:32N 35°41' E 139°58'1 3.0
2018-Feb-14 06:21N 35°40' E 139°59'3 9.3
2018-Feb-14 06:00N 35°37' E 139°59'610.6
2018-Feb-14 05:24N 35°32' E 139°54'411.2
2018-Feb-14 05:00N 35°28' E 139°51'611.4
2018-Feb-14 04:30N 35°24' E 139°46'611.5
2018-Feb-14 04:01N 35°19' E 139°44'510.9
2018-Feb-14 03:30N 35°14' E 139°47'611.1
2018-Feb-14 03:00N 35°09' E 139°46'910.5
2018-Feb-14 02:06N 35°01' E 139°39'211.3
2018-Feb-14 01:58N 35°00' E 139°37'1912.8
2018-Feb-14 00:27N 34°49' E 139°18'612.8
2018-Feb-13 23:58N 34°45' E 139°12'612.1
2018-Feb-13 23:30N 34°42' E 139°06'711.4
2018-Feb-13 22:53N 34°37' E 138°60'410.8
2018-Feb-13 22:30N 34°35' E 138°56'1111.3
2018-Feb-13 21:33N 34°34' E 138°43'1210.7
2018-Feb-13 20:28N 34°33' E 138°29'710.7
2018-Feb-13 19:49N 34°32' E 138°20'411.1
2018-Feb-13 19:28N 34°33' E 138°16'166 9.6
2018-Feb-13 02:06N 33°52' E 135°01'111.4
2018-Feb-13 02:00N 33°53' E 135°00'611.2
2018-Feb-13 01:28N 33°57' E 134°56'811.1
2018-Feb-13 00:44N 34°03' E 134°49'411.2
2018-Feb-13 00:20N 34°07' E 134°46'411.4
2018-Feb-12 23:59N 34°10' E 134°43'711.5
2018-Feb-12 23:23N 34°15' E 134°38'411.1
2018-Feb-12 23:00N 34°16' E 134°32'0 0.1
2018-Feb-12 22:23N 34°16' E 134°32'0 0.0
2018-Feb-12 21:53N 34°16' E 134°32'0 0.0
2018-Feb-12 21:29N 34°16' E 134°32'0 0.0
2018-Feb-12 20:53N 34°16' E 134°32'0 0.0
2018-Feb-12 20:29N 34°16' E 134°32'0 0.0
2018-Feb-12 19:59N 34°16' E 134°32'0 0.0
2018-Feb-12 19:29N 34°16' E 134°32'0 0.0
2018-Feb-12 18:41N 34°16' E 134°32'0 0.0
2018-Feb-12 18:29N 34°16' E 134°32'0 0.0
2018-Feb-12 17:59N 34°16' E 134°32'0 0.0
2018-Feb-12 17:29N 34°16' E 134°32'0 0.0
2018-Feb-12 16:59N 34°16' E 134°32'0 0.0
2018-Feb-12 16:29N 34°16' E 134°32'0 0.0
2018-Feb-12 15:17N 34°16' E 134°32'0 0.0
2018-Feb-12 14:58N 34°16' E 134°32'0 0.0
2018-Feb-12 14:29N 34°16' E 134°32'0 0.0
2018-Feb-12 13:59N 34°16' E 134°32'0 0.0
2018-Feb-12 13:29N 34°16' E 134°32'0 0.0
2018-Feb-12 12:59N 34°16' E 134°32'0 0.0
2018-Feb-12 12:29N 34°16' E 134°32'0 0.0
2018-Feb-12 11:59N 34°16' E 134°32'0 0.0
2018-Feb-12 11:29N 34°16' E 134°32'0 0.0
2018-Feb-12 10:41N 34°16' E 134°32'0 0.0
2018-Feb-12 10:29N 34°16' E 134°32'0 0.0
2018-Feb-12 09:35N 34°16' E 134°32'0 0.0
2018-Feb-12 09:22N 34°16' E 134°32'0 0.0
2018-Feb-12 08:53N 34°16' E 134°32'0 0.0
2018-Feb-12 08:23N 34°16' E 134°32'0 0.0
2018-Feb-12 07:41N 34°16' E 134°32'0 0.0
2018-Feb-12 07:29N 34°16' E 134°32'0 0.0
2018-Feb-12 06:59N 34°16' E 134°32'0 0.0
2018-Feb-12 06:11N 34°16' E 134°32'0 0.0
2018-Feb-12 05:59N 34°16' E 134°32'0 0.0
2018-Feb-12 05:29N 34°16' E 134°32'0 0.0
2018-Feb-12 04:53N 34°16' E 134°32'0 0.0
2018-Feb-12 04:29N 34°16' E 134°32'0 0.0
2018-Feb-12 03:59N 34°16' E 134°32'0 0.0
2018-Feb-12 03:17N 34°16' E 134°32'0 0.0
2018-Feb-12 02:59N 34°16' E 134°32'0 0.0
2018-Feb-12 02:29N 34°16' E 134°32'0 0.0
2018-Feb-12 01:53N 34°16' E 134°32'0 0.1
2018-Feb-12 01:29N 34°16' E 134°32'0 0.0
2018-Feb-12 00:59N 34°16' E 134°32'0 0.0
2018-Feb-12 00:29N 34°16' E 134°32'0 0.0
2018-Feb-11 23:59N 34°16' E 134°32'0 0.0
2018-Feb-11 23:29N 34°16' E 134°32'0 0.0
2018-Feb-11 22:59N 34°16' E 134°32'0 0.0
2018-Feb-11 22:29N 34°16' E 134°32'0 0.0
2018-Feb-11 21:53N 34°16' E 134°32'0 0.0
2018-Feb-11 21:23N 34°16' E 134°32'0 0.0
2018-Feb-11 20:59N 34°16' E 134°32'0 0.0
2018-Feb-11 20:29N 34°16' E 134°32'0 0.0
2018-Feb-11 19:59N 34°16' E 134°32'0 0.1
2018-Feb-11 19:17N 34°16' E 134°32'0 0.1
2018-Feb-11 18:35N 34°16' E 134°32'0 0.0
2018-Feb-11 18:23N 34°16' E 134°32'0 0.1
2018-Feb-11 17:53N 34°16' E 134°32'0 0.0
2018-Feb-11 17:29N 34°16' E 134°32'0 0.0
2018-Feb-11 16:53N 34°16' E 134°32'0 0.1
2018-Feb-11 16:23N 34°16' E 134°32'0 0.0
2018-Feb-11 15:59N 34°16' E 134°32'0 0.0
2018-Feb-11 15:29N 34°16' E 134°32'0 0.0
2018-Feb-11 14:47N 34°16' E 134°32'0 0.0
2018-Feb-11 13:47N 34°16' E 134°32'0 0.0
2018-Feb-11 13:23N 34°16' E 134°32'0 0.0
2018-Feb-11 12:59N 34°16' E 134°32'0 0.0
2018-Feb-11 12:29N 34°16' E 134°32'0 0.0
2018-Feb-11 11:47N 34°16' E 134°32'0 0.0
2018-Feb-11 11:29N 34°16' E 134°32'0 0.0
2018-Feb-11 10:53N 34°16' E 134°32'0 0.0
2018-Feb-11 10:11N 34°16' E 134°32'0 0.0
2018-Feb-11 09:59N 34°16' E 134°32'0 0.0
2018-Feb-11 09:23N 34°16' E 134°32'0 0.0
2018-Feb-11 08:58N 34°16' E 134°32'0 0.0
2018-Feb-11 08:29N 34°16' E 134°32'0 0.0
2018-Feb-11 07:59N 34°16' E 134°32'0 0.0
2018-Feb-11 07:29N 34°16' E 134°32'0 0.0
2018-Feb-11 06:29N 34°16' E 134°32'0 0.0
2018-Feb-11 05:53N 34°16' E 134°32'0 0.0
2018-Feb-11 05:29N 34°16' E 134°32'0 0.0
2018-Feb-11 04:35N 34°16' E 134°32'0 0.0
2018-Feb-11 04:23N 34°16' E 134°32'0 0.0
2018-Feb-11 03:59N 34°16' E 134°32'0 0.0
2018-Feb-11 03:17N 34°16' E 134°32'0 0.0
2018-Feb-11 02:47N 34°16' E 134°32'0 0.0
2018-Feb-11 02:29N 34°16' E 134°32'0 0.0
2018-Feb-11 01:59N 34°16' E 134°32'0 0.0
2018-Feb-11 01:29N 34°16' E 134°32'0 0.0
2018-Feb-11 00:59N 34°16' E 134°32'0 0.0
2018-Feb-11 00:29N 34°16' E 134°32'0 0.0
2018-Feb-10 23:59N 34°16' E 134°32'0 0.0
2018-Feb-10 23:11N 34°16' E 134°32'0 0.0
2018-Feb-10 22:59N 34°16' E 134°32'0 0.0
2018-Feb-10 22:28N 34°16' E 134°32'0 0.0
2018-Feb-10 21:41N 34°16' E 134°32'0 0.0
2018-Feb-10 21:29N 34°16' E 134°32'0 0.0
2018-Feb-10 20:47N 34°16' E 134°32'0 0.0
2018-Feb-10 19:41N 34°16' E 134°32'0 0.0
2018-Feb-10 19:29N 34°16' E 134°32'0 0.0
2018-Feb-10 18:53N 34°16' E 134°32'0 0.0
2018-Feb-10 18:17N 34°16' E 134°32'0 0.1
2018-Feb-10 18:00N 34°16' E 134°32'3 6.7
2018-Feb-10 17:30N 34°18' E 134°29'611.7
2018-Feb-10 16:59N 34°20' E 134°22'1011.7
2018-Feb-10 16:09N 34°25' E 134°11'7510.6
2018-Feb-10 09:04N 34°01' E 132°46'111.6
2018-Feb-10 09:00N 34°00' E 132°45'611.4
2018-Feb-10 08:29N 33°56' E 132°41'611.4
2018-Feb-10 08:00N 33°52' E 132°36'711.4
2018-Feb-10 07:24N 33°47' E 132°30'511.3
2018-Feb-10 06:58N 33°44' E 132°26'711.2
2018-Feb-10 06:20N 33°39' E 132°19'411.2
2018-Feb-10 05:58N 33°36' E 132°16'2910.9
2018-Feb-10 03:17N 33°20' E 131°47'511.0
2018-Feb-10 02:50N 33°18' E 131°41'41 3.3
2018-Feb-09 14:30N 33°57' E 131°55'41 6.8
2018-Feb-09 08:30N 33°54' E 131°06'8 8.3
2018-Feb-09 07:30N 33°57' E 130°57'4 7.7
2018-Feb-09 07:00N 33°54' E 130°53'1 0.1
2018-Feb-08 14:30N 33°56' E 130°53'2 5.0
2018-Feb-08 14:00N 33°56' E 130°56'4 8.5
2018-Feb-08 13:30N 33°59' E 131°00'1211.8
2018-Feb-08 12:30N 33°52' E 131°12'1212.1
2018-Feb-08 11:30N 33°50' E 131°27'5910.7
2018-Feb-08 06:00N 34°04' E 132°35'611.3
2018-Feb-08 05:30N 34°09' E 132°36'2 0.1
2018-Feb-07 00:36N 34°12' E 132°36'111.5
2018-Feb-07 00:30N 34°11' E 132°37'8010.3
2018-Feb-06 16:48N 34°25' E 134°12'811.0
2018-Feb-06 16:05N 34°22' E 134°21'211.0
2018-Feb-06 15:56N 34°21' E 134°22'510.9
2018-Feb-06 15:27N 34°19' E 134°28'611.0
2018-Feb-06 14:57N 34°17' E 134°34'511.0
2018-Feb-06 14:30N 34°14' E 134°39'611.5
2018-Feb-06 13:59N 34°09' E 134°44'511.2
2018-Feb-06 13:30N 34°05' E 134°48'611.0
2018-Feb-06 13:00N 34°01' E 134°52'611.2
2018-Feb-06 12:30N 33°57' E 134°57'510.9
2018-Feb-06 12:00N 33°53' E 135°01'  
Track history (hours):
 
Tides and Currents Weather Stations Pressure Air Temp Water Temp Dewpoint Dewpoint Depression Visibility Wind Speed Wind Dir Waves Ship Positions

Hayase Maru

Last reported at 2018-Feb-16 03:40 UTC. Time now 2018-Feb-22 09:16 UTC.
Position N 34°58' E 140°07'.

Length 73 m; draft 4 m.

Type: Ship. MMSI: 431000395.

Date/timePositionNaut miles runAvg speedWind from/ knotsBaromVisibWave heightAir tempDewpointWater temp
2018-Feb-16 03:40N 34°58' E 140°07'19 9.8
2018-Feb-16 01:42N 34°58' E 139°43'313.0
2018-Feb-16 01:29N 35°01' E 139°44'612.9
2018-Feb-16 01:00N 35°07' E 139°45'612.7
2018-Feb-16 00:30N 35°13' E 139°46'612.4
2018-Feb-16 00:00N 35°19' E 139°43'612.1
2018-Feb-15 23:30N 35°25' E 139°44'713.0
2018-Feb-15 22:58N 35°29' E 139°50'713.0
2018-Feb-15 22:28N 35°34' E 139°55'5 0.3
2018-Feb-15 06:44N 35°38' E 139°58'2 0.1
2018-Feb-14 06:32N 35°41' E 139°58'1 3.0
2018-Feb-14 06:21N 35°40' E 139°59'3 9.3
2018-Feb-14 06:00N 35°37' E 139°59'610.6
2018-Feb-14 05:24N 35°32' E 139°54'411.2
2018-Feb-14 05:00N 35°28' E 139°51'611.4
2018-Feb-14 04:30N 35°24' E 139°46'611.5
2018-Feb-14 04:01N 35°19' E 139°44'510.9
2018-Feb-14 03:30N 35°14' E 139°47'611.1
2018-Feb-14 03:00N 35°09' E 139°46'910.5
2018-Feb-14 02:06N 35°01' E 139°39'211.3
2018-Feb-14 01:58N 35°00' E 139°37'1912.8
2018-Feb-14 00:27N 34°49' E 139°18'612.8
2018-Feb-13 23:58N 34°45' E 139°12'612.1
2018-Feb-13 23:30N 34°42' E 139°06'711.4
2018-Feb-13 22:53N 34°37' E 138°60'410.8
2018-Feb-13 22:30N 34°35' E 138°56'1111.3
2018-Feb-13 21:33N 34°34' E 138°43'1210.7
2018-Feb-13 20:28N 34°33' E 138°29'710.7
2018-Feb-13 19:49N 34°32' E 138°20'411.1
2018-Feb-13 19:28N 34°33' E 138°16'166 9.6
2018-Feb-13 02:06N 33°52' E 135°01'111.4
2018-Feb-13 02:00N 33°53' E 135°00'611.2
2018-Feb-13 01:28N 33°57' E 134°56'811.1
2018-Feb-13 00:44N 34°03' E 134°49'411.2
2018-Feb-13 00:20N 34°07' E 134°46'411.4
2018-Feb-12 23:59N 34°10' E 134°43'711.5
2018-Feb-12 23:23N 34°15' E 134°38'411.1
2018-Feb-12 23:00N 34°16' E 134°32'0 0.1
2018-Feb-12 22:23N 34°16' E 134°32'0 0.0
2018-Feb-12 21:53N 34°16' E 134°32'0 0.0
2018-Feb-12 21:29N 34°16' E 134°32'0 0.0
2018-Feb-12 20:53N 34°16' E 134°32'0 0.0
2018-Feb-12 20:29N 34°16' E 134°32'0 0.0
2018-Feb-12 19:59N 34°16' E 134°32'0 0.0
2018-Feb-12 19:29N 34°16' E 134°32'0 0.0
2018-Feb-12 18:41N 34°16' E 134°32'0 0.0
2018-Feb-12 18:29N 34°16' E 134°32'0 0.0
2018-Feb-12 17:59N 34°16' E 134°32'0 0.0
2018-Feb-12 17:29N 34°16' E 134°32'0 0.0
2018-Feb-12 16:59N 34°16' E 134°32'0 0.0
2018-Feb-12 16:29N 34°16' E 134°32'0 0.0
2018-Feb-12 15:17N 34°16' E 134°32'0 0.0
2018-Feb-12 14:58N 34°16' E 134°32'0 0.0
2018-Feb-12 14:29N 34°16' E 134°32'0 0.0
2018-Feb-12 13:59N 34°16' E 134°32'0 0.0
2018-Feb-12 13:29N 34°16' E 134°32'0 0.0
2018-Feb-12 12:59N 34°16' E 134°32'0 0.0
2018-Feb-12 12:29N 34°16' E 134°32'0 0.0
2018-Feb-12 11:59N 34°16' E 134°32'0 0.0
2018-Feb-12 11:29N 34°16' E 134°32'0 0.0
2018-Feb-12 10:41N 34°16' E 134°32'0 0.0
2018-Feb-12 10:29N 34°16' E 134°32'0 0.0
2018-Feb-12 09:35N 34°16' E 134°32'0 0.0
2018-Feb-12 09:22N 34°16' E 134°32'0 0.0
2018-Feb-12 08:53N 34°16' E 134°32'0 0.0
2018-Feb-12 08:23N 34°16' E 134°32'0 0.0
2018-Feb-12 07:41N 34°16' E 134°32'0 0.0
2018-Feb-12 07:29N 34°16' E 134°32'0 0.0
2018-Feb-12 06:59N 34°16' E 134°32'0 0.0
2018-Feb-12 06:11N 34°16' E 134°32'0 0.0
2018-Feb-12 05:59N 34°16' E 134°32'0 0.0
2018-Feb-12 05:29N 34°16' E 134°32'0 0.0
2018-Feb-12 04:53N 34°16' E 134°32'0 0.0
2018-Feb-12 04:29N 34°16' E 134°32'0 0.0
2018-Feb-12 03:59N 34°16' E 134°32'0 0.0
2018-Feb-12 03:17N 34°16' E 134°32'0 0.0
2018-Feb-12 02:59N 34°16' E 134°32'0 0.0
2018-Feb-12 02:29N 34°16' E 134°32'0 0.0
2018-Feb-12 01:53N 34°16' E 134°32'0 0.1
2018-Feb-12 01:29N 34°16' E 134°32'0 0.0
2018-Feb-12 00:59N 34°16' E 134°32'0 0.0
2018-Feb-12 00:29N 34°16' E 134°32'0 0.0
2018-Feb-11 23:59N 34°16' E 134°32'0 0.0
2018-Feb-11 23:29N 34°16' E 134°32'0 0.0
2018-Feb-11 22:59N 34°16' E 134°32'0 0.0
2018-Feb-11 22:29N 34°16' E 134°32'0 0.0
2018-Feb-11 21:53N 34°16' E 134°32'0 0.0
2018-Feb-11 21:23N 34°16' E 134°32'0 0.0
2018-Feb-11 20:59N 34°16' E 134°32'0 0.0
2018-Feb-11 20:29N 34°16' E 134°32'0 0.0
2018-Feb-11 19:59N 34°16' E 134°32'0 0.1
2018-Feb-11 19:17N 34°16' E 134°32'0 0.1
2018-Feb-11 18:35N 34°16' E 134°32'0 0.0
2018-Feb-11 18:23N 34°16' E 134°32'0 0.1
2018-Feb-11 17:53N 34°16' E 134°32'0 0.0
2018-Feb-11 17:29N 34°16' E 134°32'0 0.0
2018-Feb-11 16:53N 34°16' E 134°32'0 0.1
2018-Feb-11 16:23N 34°16' E 134°32'0 0.0
2018-Feb-11 15:59N 34°16' E 134°32'0 0.0
2018-Feb-11 15:29N 34°16' E 134°32'0 0.0
2018-Feb-11 14:47N 34°16' E 134°32'0 0.0
2018-Feb-11 13:47N 34°16' E 134°32'0 0.0
2018-Feb-11 13:23N 34°16' E 134°32'0 0.0
2018-Feb-11 12:59N 34°16' E 134°32'0 0.0
2018-Feb-11 12:29N 34°16' E 134°32'0 0.0
2018-Feb-11 11:47N 34°16' E 134°32'0 0.0
2018-Feb-11 11:29N 34°16' E 134°32'0 0.0
2018-Feb-11 10:53N 34°16' E 134°32'0 0.0
2018-Feb-11 10:11N 34°16' E 134°32'0 0.0
2018-Feb-11 09:59N 34°16' E 134°32'0 0.0
2018-Feb-11 09:23N 34°16' E 134°32'0 0.0
2018-Feb-11 08:58N 34°16' E 134°32'0 0.0
2018-Feb-11 08:29N 34°16' E 134°32'0 0.0
2018-Feb-11 07:59N 34°16' E 134°32'0 0.0
2018-Feb-11 07:29N 34°16' E 134°32'0 0.0
2018-Feb-11 06:29N 34°16' E 134°32'0 0.0
2018-Feb-11 05:53N 34°16' E 134°32'0 0.0
2018-Feb-11 05:29N 34°16' E 134°32'0 0.0
2018-Feb-11 04:35N 34°16' E 134°32'0 0.0
2018-Feb-11 04:23N 34°16' E 134°32'0 0.0
2018-Feb-11 03:59N 34°16' E 134°32'0 0.0
2018-Feb-11 03:17N 34°16' E 134°32'0 0.0
2018-Feb-11 02:47N 34°16' E 134°32'0 0.0
2018-Feb-11 02:29N 34°16' E 134°32'0 0.0
2018-Feb-11 01:59N 34°16' E 134°32'0 0.0
2018-Feb-11 01:29N 34°16' E 134°32'0 0.0
2018-Feb-11 00:59N 34°16' E 134°32'0 0.0
2018-Feb-11 00:29N 34°16' E 134°32'0 0.0
2018-Feb-10 23:59N 34°16' E 134°32'0 0.0
2018-Feb-10 23:11N 34°16' E 134°32'0 0.0
2018-Feb-10 22:59N 34°16' E 134°32'0 0.0
2018-Feb-10 22:28N 34°16' E 134°32'0 0.0
2018-Feb-10 21:41N 34°16' E 134°32'0 0.0
2018-Feb-10 21:29N 34°16' E 134°32'0 0.0
2018-Feb-10 20:47N 34°16' E 134°32'0 0.0
2018-Feb-10 19:41N 34°16' E 134°32'0 0.0
2018-Feb-10 19:29N 34°16' E 134°32'0 0.0
2018-Feb-10 18:53N 34°16' E 134°32'0 0.0
2018-Feb-10 18:17N 34°16' E 134°32'0 0.1
2018-Feb-10 18:00N 34°16' E 134°32'3 6.7
2018-Feb-10 17:30N 34°18' E 134°29'611.7
2018-Feb-10 16:59N 34°20' E 134°22'1011.7
2018-Feb-10 16:09N 34°25' E 134°11'7510.6
2018-Feb-10 09:04N 34°01' E 132°46'111.6
2018-Feb-10 09:00N 34°00' E 132°45'611.4
2018-Feb-10 08:29N 33°56' E 132°41'611.4
2018-Feb-10 08:00N 33°52' E 132°36'711.4
2018-Feb-10 07:24N 33°47' E 132°30'511.3
2018-Feb-10 06:58N 33°44' E 132°26'711.2
2018-Feb-10 06:20N 33°39' E 132°19'411.2
2018-Feb-10 05:58N 33°36' E 132°16'2910.9
2018-Feb-10 03:17N 33°20' E 131°47'511.0
2018-Feb-10 02:50N 33°18' E 131°41'41 3.3
2018-Feb-09 14:30N 33°57' E 131°55'41 6.8
2018-Feb-09 08:30N 33°54' E 131°06'8 8.3
2018-Feb-09 07:30N 33°57' E 130°57'4 7.7
2018-Feb-09 07:00N 33°54' E 130°53'1 0.1
2018-Feb-08 14:30N 33°56' E 130°53'2 5.0
2018-Feb-08 14:00N 33°56' E 130°56'4 8.5
2018-Feb-08 13:30N 33°59' E 131°00'1211.8
2018-Feb-08 12:30N 33°52' E 131°12'1212.1
2018-Feb-08 11:30N 33°50' E 131°27'5910.7
2018-Feb-08 06:00N 34°04' E 132°35'611.3
2018-Feb-08 05:30N 34°09' E 132°36'2 0.1
2018-Feb-07 00:36N 34°12' E 132°36'111.5
2018-Feb-07 00:30N 34°11' E 132°37'8010.3
2018-Feb-06 16:48N 34°25' E 134°12'811.0
2018-Feb-06 16:05N 34°22' E 134°21'211.0
2018-Feb-06 15:56N 34°21' E 134°22'510.9
2018-Feb-06 15:27N 34°19' E 134°28'611.0
2018-Feb-06 14:57N 34°17' E 134°34'511.0
2018-Feb-06 14:30N 34°14' E 134°39'611.5
2018-Feb-06 13:59N 34°09' E 134°44'511.2
2018-Feb-06 13:30N 34°05' E 134°48'611.0
2018-Feb-06 13:00N 34°01' E 134°52'611.2
2018-Feb-06 12:30N 33°57' E 134°57'510.9
2018-Feb-06 12:00N 33°53' E 135°01'  

Dump ship's entire track history